Aeroporto :
LOGIN :

Iscrizione | Disclaimer

   EN    FR    IT 

 










Sommario :    VFR   VFR Marginale   IFR   IFR Intensivo   IFR Molto Intensivo
Visibilità : 
Base nubi : 
>= 8 km
>= 3000ft
5 / 8 km
1000 / 3000 ft
1500m / 5 km
500 / 1000 ft
800 / 1500m
200 / 500 ft
< 800m
< 200 ft
Simboli :   Temporali  Nebbia  Neve Forte  Precipitazioni Forti  Vento > 20 kt
SIGMETs :   Varie  Temporali  Ghiacco  Turbolenza  Onda orograficha  Ceneri Vulcaniche






- Altitudine del aeroporto : 13 ft
- Codice IATA : OST


EBOS - Oostend bruges Int.

ULTIMO METAR :
  • 230220Z 12004KT 4000 BR SCT009 BKN024 05/03 Q1035 TEMPO 2500 BR BKN009

METARs OBSOLETI :
  • 230150Z 12003KT 3200 BR BKN010 05/04 Q1036 TEMPO BKN009
  • 230120Z 12004KT 3200 BR FEW010 BKN011 05/04 Q1036 TEMPO BKN009
  • 230050Z 12004KT 3000 BR FEW010 BKN012 05/04 Q1036 TEMPO 1500 BR BKN009
  • 230020Z 10003KT 2800 BR BKN012 05/04 Q1036 TEMPO BKN009
  • 222350Z 12004KT 2500 BR BKN011 05/04 Q1036 TEMPO 1200 BR BKN009

TAF TAF EBOS
Valido dal 23 a 00 ore il 24 a 06 ore UTC


222300Z 2300/2406 VRB03KT 2500 BR SCT008 BKN018
PROB40
TEMPO 2300/2309 0300 FG BKN002
PROB40 2312/2318 7000 NSW
PROB40
TEMPO 2321/2406 0300 FG VV001



MetMap, La meteo Aeronautica in un colpo d'occhio ! - Copyright ORBIFLY Dicembre 2007 - Disclaimer

ORBIFLY MET'MAP TEAM :

Programmazione e sviluppo : Alexandra Zaïnal
Concezione : Baudouin d'Aumeries
Aiuto per la programmazione : Marc-Olivier Méhu
Supporto tecnico e logistico : Manuel Goepfert
Aiuto per la traduzione : Arnaldo La Scala

Contatto : metmap@orbifly.com




FONTI E CREDITI :

   NOAA